createdAt,value
2017-07-29T00:00:14.521Z,943.5
2017-07-29T00:01:22.608Z,943.4
2017-07-29T00:02:30.699Z,943.4
2017-07-29T00:03:38.933Z,943.5
2017-07-29T00:04:46.883Z,943.4
2017-07-29T00:05:54.960Z,943.4
2017-07-29T00:07:03.054Z,943.5
2017-07-29T00:08:11.196Z,943.4
2017-07-29T00:09:19.287Z,943.4
2017-07-29T00:10:27.319Z,943.4
2017-07-29T00:11:35.408Z,943.4
2017-07-29T00:12:43.495Z,943.4
2017-07-29T00:13:51.711Z,943.4
2017-07-29T00:14:59.952Z,943.4
2017-07-29T00:16:07.761Z,943.3
2017-07-29T00:17:15.855Z,943.3
2017-07-29T00:18:23.939Z,943.3
2017-07-29T00:19:32.027Z,943.3
2017-07-29T00:20:40.218Z,943.3
2017-07-29T00:21:48.205Z,943.3
2017-07-29T00:22:56.294Z,943.2
2017-07-29T00:24:04.437Z,943.2
2017-07-29T00:25:12.469Z,943.2
2017-07-29T00:26:20.676Z,943.2
2017-07-29T00:27:28.646Z,943.2
2017-07-29T00:28:36.736Z,943.2
2017-07-29T00:29:44.825Z,943.2
2017-07-29T00:30:53.031Z,943.2
2017-07-29T00:32:01.185Z,943.2
2017-07-29T00:33:09.089Z,943.2
2017-07-29T00:34:17.178Z,943.2
2017-07-29T00:35:25.268Z,943.2
2017-07-29T00:36:33.356Z,943.2
2017-07-29T00:37:41.598Z,943.2
2017-07-29T00:38:49.538Z,943.2
2017-07-29T00:39:57.680Z,943.3
2017-07-29T00:41:05.710Z,943.2
2017-07-29T00:42:13.800Z,943.2
2017-07-29T00:43:21.946Z,943.2
2017-07-29T00:44:30.017Z,943.2
2017-07-29T00:45:38.066Z,943.2
2017-07-29T00:46:46.155Z,943.2
2017-07-29T00:47:54.256Z,943.2
2017-07-29T00:49:02.466Z,943.1
2017-07-29T00:50:10.435Z,943.2
2017-07-29T00:51:18.522Z,943.2
2017-07-29T00:52:26.611Z,943.2
2017-07-29T00:53:34.704Z,943.2
2017-07-29T00:54:42.975Z,943.2
2017-07-29T00:55:50.995Z,943.2
2017-07-29T00:56:58.965Z,943.2
2017-07-29T00:58:07.052Z,943.2
2017-07-29T00:59:15.142Z,943.2
2017-07-29T01:00:23.287Z,943.2
2017-07-29T01:01:31.319Z,943.2
2017-07-29T01:02:39.406Z,943.2
2017-07-29T01:03:47.501Z,943.2
2017-07-29T01:04:55.771Z,943.1
2017-07-29T01:06:03.928Z,943.1
2017-07-29T01:07:11.764Z,943.1
2017-07-29T01:08:19.859Z,943.1
2017-07-29T01:09:27.941Z,943.1
2017-07-29T01:10:36.042Z,943.1
2017-07-29T01:11:44.316Z,943.1
2017-07-29T01:12:52.219Z,943.1
2017-07-29T01:14:00.308Z,943.1
2017-07-29T01:15:08.396Z,943.1
2017-07-29T01:16:16.486Z,943.0
2017-07-29T01:17:24.628Z,943.1
2017-07-29T01:18:32.658Z,943.1
2017-07-29T01:19:40.749Z,943.0
2017-07-29T01:20:48.837Z,943.1
2017-07-29T01:21:57.112Z,943.0
2017-07-29T01:23:05.261Z,943.1
2017-07-29T01:24:13.102Z,943.0
2017-07-29T01:25:21.192Z,943.1
2017-07-29T01:26:29.284Z,943.0
2017-07-29T01:27:37.495Z,943.1
2017-07-29T01:28:45.569Z,943.0
2017-07-29T01:29:53.556Z,943.1
2017-07-29T01:31:01.647Z,943.1
2017-07-29T01:32:09.733Z,943.1
2017-07-29T01:33:17.821Z,943.1
2017-07-29T01:34:25.966Z,943.1
2017-07-29T01:35:34.005Z,943.1
2017-07-29T01:36:42.086Z,943.1
2017-07-29T01:37:50.174Z,943.2
2017-07-29T01:38:58.266Z,943.1
2017-07-29T01:40:06.412Z,943.2
2017-07-29T01:41:14.444Z,943.2
2017-07-29T01:42:22.532Z,943.1
2017-07-29T01:43:30.912Z,943.2
2017-07-29T01:44:38.711Z,943.1
2017-07-29T01:45:46.853Z,943.1
2017-07-29T01:46:54.890Z,943.1
2017-07-29T01:48:02.975Z,943.1
2017-07-29T01:49:11.062Z,943.1
2017-07-29T01:50:19.285Z,943.1
2017-07-29T01:51:27.308Z,943.1
2017-07-29T01:52:35.329Z,943.1
2017-07-29T01:53:43.420Z,943.1
2017-07-29T01:54:51.504Z,943.1
2017-07-29T01:55:59.640Z,943.1
2017-07-29T01:57:07.806Z,943.1
2017-07-29T01:58:15.776Z,943.1
2017-07-29T01:59:23.983Z,943.1
2017-07-29T02:00:32.123Z,943.1
2017-07-29T02:01:40.040Z,943.0
2017-07-29T02:02:48.184Z,943.0
2017-07-29T02:03:56.211Z,943.0
2017-07-29T02:05:04.303Z,943.0
2017-07-29T02:06:12.391Z,943.0
2017-07-29T02:07:20.677Z,943.0
2017-07-29T02:08:28.625Z,943.0
2017-07-29T02:09:36.662Z,943.0
2017-07-29T02:10:44.747Z,943.1
2017-07-29T02:11:52.835Z,943.1
2017-07-29T02:13:01.016Z,943.1
2017-07-29T02:14:09.194Z,943.1
2017-07-29T02:15:17.220Z,943.1
2017-07-29T02:16:25.190Z,943.1
2017-07-29T02:17:33.276Z,943.1
2017-07-29T02:18:41.365Z,943.1
2017-07-29T02:19:49.535Z,943.1
2017-07-29T02:20:57.540Z,943.1
2017-07-29T02:22:05.629Z,943.1
2017-07-29T02:23:13.715Z,943.0
2017-07-29T02:24:21.804Z,943.1
2017-07-29T02:25:29.950Z,943.1
2017-07-29T02:26:37.982Z,943.1
2017-07-29T02:27:46.071Z,943.1
2017-07-29T02:28:54.160Z,943.0
2017-07-29T02:30:02.267Z,943.0
2017-07-29T02:31:10.584Z,943.0
2017-07-29T02:32:18.423Z,943.1
2017-07-29T02:33:26.512Z,943.1
2017-07-29T02:34:34.601Z,943.1
2017-07-29T02:35:42.686Z,943.2
2017-07-29T02:36:50.910Z,943.1
2017-07-29T02:37:58.867Z,943.1
2017-07-29T02:39:06.952Z,943.1
2017-07-29T02:40:15.041Z,943.2
2017-07-29T02:41:23.133Z,943.2
2017-07-29T02:42:31.274Z,943.2
2017-07-29T02:43:39.305Z,943.2
2017-07-29T02:44:47.389Z,943.2
2017-07-29T02:45:55.484Z,943.2
2017-07-29T02:47:03.690Z,943.2
2017-07-29T02:48:11.711Z,943.2
2017-07-29T02:49:19.745Z,943.2
2017-07-29T02:50:27.839Z,943.2
2017-07-29T02:51:35.918Z,943.2
2017-07-29T02:52:44.006Z,943.2
2017-07-29T02:53:52.255Z,943.2
2017-07-29T02:55:00.186Z,943.2
2017-07-29T02:56:08.271Z,943.2
2017-07-29T02:57:16.359Z,943.2
2017-07-29T02:58:24.449Z,943.2
2017-07-29T02:59:32.663Z,943.2
2017-07-29T03:00:40.641Z,943.3
2017-07-29T03:01:48.711Z,943.2
2017-07-29T03:02:56.853Z,943.2
2017-07-29T03:04:05.083Z,943.2
2017-07-29T03:05:13.225Z,943.2
2017-07-29T03:06:21.062Z,943.2
2017-07-29T03:07:29.152Z,943.2
2017-07-29T03:08:37.240Z,943.1
2017-07-29T03:09:45.327Z,943.1
2017-07-29T03:10:53.613Z,943.2
2017-07-29T03:12:01.500Z,943.2
2017-07-29T03:13:09.590Z,943.2
2017-07-29T03:14:17.676Z,943.1
2017-07-29T03:15:25.762Z,943.2
2017-07-29T03:16:33.921Z,943.1
2017-07-29T03:17:41.961Z,943.1
2017-07-29T03:18:50.086Z,943.1
2017-07-29T03:19:58.116Z,943.2
2017-07-29T03:21:06.200Z,943.1
2017-07-29T03:22:14.419Z,943.1
2017-07-29T03:23:22.383Z,943.1
2017-07-29T03:24:30.472Z,943.1
2017-07-29T03:25:38.561Z,943.1
2017-07-29T03:26:46.651Z,943.1
2017-07-29T03:27:54.900Z,943.0
2017-07-29T03:29:02.822Z,943.1
2017-07-29T03:30:10.912Z,943.0
2017-07-29T03:31:18.998Z,943.0
2017-07-29T03:32:27.085Z,943.1
2017-07-29T03:33:35.297Z,943.1
2017-07-29T03:34:43.382Z,943.1
2017-07-29T03:35:51.351Z,943.1
2017-07-29T03:36:59.439Z,943.1
2017-07-29T03:38:07.527Z,943.1
2017-07-29T03:39:15.667Z,943.1
2017-07-29T03:40:23.702Z,943.1
2017-07-29T03:41:31.790Z,943.1
2017-07-29T03:42:39.875Z,943.1
2017-07-29T03:43:47.965Z,943.1
2017-07-29T03:44:56.276Z,943.2
2017-07-29T03:46:04.141Z,943.1
2017-07-29T03:47:12.230Z,943.2
2017-07-29T03:48:20.315Z,943.2
2017-07-29T03:49:28.403Z,943.2
2017-07-29T03:50:36.703Z,943.2
2017-07-29T03:51:44.668Z,943.2
2017-07-29T03:52:52.669Z,943.2
2017-07-29T03:54:00.755Z,943.3
2017-07-29T03:55:08.843Z,943.2
2017-07-29T03:56:16.988Z,943.3
2017-07-29T03:57:25.029Z,943.3
2017-07-29T03:58:33.105Z,943.3
2017-07-29T03:59:41.192Z,943.3
2017-07-29T04:00:49.278Z,943.3
2017-07-29T04:01:57.492Z,943.3
2017-07-29T04:03:05.459Z,943.3
2017-07-29T04:04:13.546Z,943.3
2017-07-29T04:05:21.633Z,943.3
2017-07-29T04:06:29.778Z,943.3
2017-07-29T04:07:37.980Z,943.3
2017-07-29T04:08:46.009Z,943.4
2017-07-29T04:09:53.981Z,943.4
2017-07-29T04:11:02.072Z,943.3
2017-07-29T04:12:10.159Z,943.4
2017-07-29T04:13:18.365Z,943.4
2017-07-29T04:14:26.334Z,943.4
2017-07-29T04:15:34.424Z,943.4
2017-07-29T04:16:42.509Z,943.4
2017-07-29T04:17:50.596Z,943.4
2017-07-29T04:18:58.738Z,943.4
2017-07-29T04:20:06.805Z,943.4
2017-07-29T04:21:14.933Z,943.5
2017-07-29T04:22:23.067Z,943.4
2017-07-29T04:23:31.031Z,943.4
2017-07-29T04:24:39.177Z,943.4
2017-07-29T04:25:47.209Z,943.4
2017-07-29T04:26:55.298Z,943.4
2017-07-29T04:28:03.384Z,943.4
2017-07-29T04:29:11.471Z,943.4
2017-07-29T04:30:19.678Z,943.4
2017-07-29T04:31:27.647Z,943.4
2017-07-29T04:32:35.735Z,943.5
2017-07-29T04:33:43.822Z,943.4
2017-07-29T04:34:51.909Z,943.5
2017-07-29T04:36:00.053Z,943.5
2017-07-29T04:37:08.282Z,943.5
2017-07-29T04:38:16.291Z,943.5
2017-07-29T04:39:24.260Z,943.5
2017-07-29T04:40:32.368Z,943.5
2017-07-29T04:41:40.488Z,943.5
2017-07-29T04:42:48.527Z,943.5
2017-07-29T04:43:56.741Z,943.5
2017-07-29T04:45:04.698Z,943.5
2017-07-29T04:46:12.787Z,943.6
2017-07-29T04:47:21.206Z,943.5
2017-07-29T04:48:28.961Z,943.6
2017-07-29T04:49:37.049Z,943.6
2017-07-29T04:50:45.134Z,943.6
2017-07-29T04:51:53.224Z,943.6
2017-07-29T04:53:04.472Z,943.6
2017-07-29T04:54:09.520Z,943.6
2017-07-29T04:55:17.487Z,943.5
2017-07-29T04:56:25.581Z,943.6
2017-07-29T04:57:33.664Z,943.5
2017-07-29T04:58:41.805Z,943.6
2017-07-29T04:59:49.838Z,943.6
2017-07-29T05:00:57.925Z,943.6
2017-07-29T05:02:06.024Z,943.6
2017-07-29T05:03:14.101Z,943.6
2017-07-29T05:04:22.245Z,943.6
2017-07-29T05:05:30.275Z,943.7
2017-07-29T05:06:38.366Z,943.7
2017-07-29T05:07:46.891Z,943.6
2017-07-29T05:08:54.540Z,943.6
2017-07-29T05:10:03.055Z,943.6
2017-07-29T05:11:11.324Z,943.6
2017-07-29T05:12:19.994Z,943.7
2017-07-29T05:13:26.906Z,943.6
2017-07-29T05:14:35.003Z,943.6
2017-07-29T05:15:43.139Z,943.6
2017-07-29T05:16:51.159Z,943.6
2017-07-29T05:18:00.519Z,943.6
2017-07-29T05:19:07.332Z,943.6
2017-07-29T05:20:15.589Z,943.6
2017-07-29T05:21:23.632Z,943.6
2017-07-29T05:22:31.597Z,943.6
2017-07-29T05:23:39.859Z,943.5
2017-07-29T05:24:47.774Z,943.6
2017-07-29T05:25:55.916Z,943.6
2017-07-29T05:27:04.005Z,943.6
2017-07-29T05:28:12.033Z,943.6
2017-07-29T05:29:20.174Z,943.6
2017-07-29T05:30:28.220Z,943.7
2017-07-29T05:31:36.297Z,943.6
2017-07-29T05:32:44.506Z,943.7
2017-07-29T05:33:52.656Z,943.6
2017-07-29T05:35:00.846Z,943.7
2017-07-29T05:36:08.877Z,943.7
2017-07-29T05:37:16.902Z,943.7
2017-07-29T05:38:25.309Z,943.7
2017-07-29T05:39:32.907Z,943.7
2017-07-29T05:40:41.272Z,943.7
2017-07-29T05:41:49.483Z,943.8
2017-07-29T05:42:57.326Z,943.8
2017-07-29T05:44:05.562Z,943.7
2017-07-29T05:45:13.650Z,943.8
2017-07-29T05:46:21.601Z,943.8
2017-07-29T05:47:29.824Z,943.8
2017-07-29T05:48:37.616Z,943.8
2017-07-29T05:49:45.822Z,943.8
2017-07-29T05:50:53.790Z,943.8
2017-07-29T05:52:01.879Z,943.8
2017-07-29T05:53:10.061Z,943.8
2017-07-29T05:54:18.055Z,943.8
2017-07-29T05:55:26.197Z,943.8
2017-07-29T05:56:34.231Z,943.8
2017-07-29T05:57:42.858Z,943.8
2017-07-29T05:58:50.404Z,943.8
2017-07-29T05:59:58.531Z,943.8
2017-07-29T06:01:06.634Z,943.8
2017-07-29T06:02:14.905Z,943.8
2017-07-29T06:03:22.751Z,943.8
2017-07-29T06:04:30.837Z,943.9
2017-07-29T06:05:38.924Z,943.8
2017-07-29T06:06:47.133Z,943.8
2017-07-29T06:07:55.100Z,943.9
2017-07-29T06:09:03.187Z,943.9
2017-07-29T06:10:11.339Z,943.9
2017-07-29T06:11:19.364Z,943.9
2017-07-29T06:12:27.507Z,943.9
2017-07-29T06:13:35.661Z,943.9
2017-07-29T06:14:43.626Z,943.9
2017-07-29T06:15:51.823Z,943.9
2017-07-29T06:16:59.927Z,943.9
2017-07-29T06:18:07.945Z,943.9
2017-07-29T06:19:15.972Z,943.9
2017-07-29T06:20:24.064Z,943.9
2017-07-29T06:21:32.149Z,943.9
2017-07-29T06:22:40.245Z,943.9
2017-07-29T06:23:48.447Z,943.9
2017-07-29T06:24:56.420Z,943.9
2017-07-29T06:26:04.501Z,943.9
2017-07-29T06:27:12.584Z,944.0
2017-07-29T06:28:20.671Z,944.0
2017-07-29T06:29:28.817Z,944.0
2017-07-29T06:30:36.850Z,944.0
2017-07-29T06:31:44.934Z,944.0
2017-07-29T06:32:53.189Z,944.0
2017-07-29T06:34:01.282Z,944.0
2017-07-29T06:35:09.318Z,944.0
2017-07-29T06:36:17.289Z,944.0
2017-07-29T06:37:25.393Z,944.0
2017-07-29T06:38:33.465Z,944.1
2017-07-29T06:39:41.608Z,944.1
2017-07-29T06:40:49.691Z,944.1
2017-07-29T06:41:57.723Z,944.1
2017-07-29T06:43:05.836Z,944.1
2017-07-29T06:44:13.899Z,944.1
2017-07-29T06:45:22.104Z,944.1
2017-07-29T06:46:30.128Z,944.1
2017-07-29T06:47:38.161Z,944.1
2017-07-29T06:48:46.249Z,944.1
2017-07-29T06:49:54.514Z,944.1
2017-07-29T06:51:02.582Z,944.1
2017-07-29T06:52:10.565Z,944.1
2017-07-29T06:53:18.599Z,944.1
2017-07-29T06:54:26.685Z,944.1
2017-07-29T06:55:34.776Z,944.1
2017-07-29T06:56:42.921Z,944.1
2017-07-29T06:57:51.068Z,944.1
2017-07-29T06:58:59.034Z,944.1
2017-07-29T07:00:07.122Z,944.1
2017-07-29T07:01:15.269Z,944.1
2017-07-29T07:02:23.301Z,944.1
2017-07-29T07:03:31.504Z,944.1
2017-07-29T07:04:39.473Z,944.0
2017-07-29T07:05:47.583Z,944.1
2017-07-29T07:06:55.776Z,944.1
2017-07-29T07:08:03.869Z,944.0
2017-07-29T07:09:11.876Z,944.1
2017-07-29T07:10:19.933Z,944.1
2017-07-29T07:11:27.996Z,944.1
2017-07-29T07:12:36.088Z,944.1
2017-07-29T07:13:44.171Z,944.0
2017-07-29T07:14:52.376Z,944.1
2017-07-29T07:16:00.353Z,944.0
2017-07-29T07:17:08.494Z,944.1
2017-07-29T07:18:16.526Z,944.0
2017-07-29T07:19:24.612Z,944.0
2017-07-29T07:20:32.817Z,944.0
2017-07-29T07:21:40.786Z,944.0
2017-07-29T07:22:48.872Z,944.1
2017-07-29T07:23:57.345Z,944.1
2017-07-29T07:25:05.041Z,944.1
2017-07-29T07:26:13.198Z,944.1
2017-07-29T07:27:21.228Z,944.1
2017-07-29T07:28:29.317Z,944.1
2017-07-29T07:29:37.403Z,944.1
2017-07-29T07:30:45.489Z,944.1
2017-07-29T07:31:53.633Z,944.1
2017-07-29T07:33:01.784Z,944.1
2017-07-29T07:34:09.747Z,944.1
2017-07-29T07:35:18.002Z,944.1
2017-07-29T07:36:25.927Z,944.2
2017-07-29T07:37:34.067Z,944.1
2017-07-29T07:38:42.095Z,944.1
2017-07-29T07:39:50.185Z,944.2
2017-07-29T07:40:58.799Z,944.1
2017-07-29T07:42:08.212Z,944.1
2017-07-29T07:43:16.570Z,944.1
2017-07-29T07:44:22.949Z,944.1
2017-07-29T07:45:30.975Z,944.2
2017-07-29T07:46:39.056Z,944.2
2017-07-29T07:47:47.030Z,944.1
2017-07-29T07:48:55.522Z,944.1
2017-07-29T07:50:03.079Z,944.2
2017-07-29T07:51:11.303Z,944.2
2017-07-29T07:52:19.613Z,944.2
2017-07-29T07:53:27.454Z,944.2
2017-07-29T07:54:35.368Z,944.2
2017-07-29T07:55:43.400Z,944.2
2017-07-29T07:56:51.486Z,944.2
2017-07-29T07:57:59.764Z,944.1
2017-07-29T07:59:07.659Z,944.1
2017-07-29T08:00:15.867Z,944.1
2017-07-29T08:01:23.838Z,944.1
2017-07-29T08:02:31.919Z,944.2
2017-07-29T08:03:40.005Z,944.2
2017-07-29T08:04:48.252Z,944.2
2017-07-29T08:05:56.298Z,944.2
2017-07-29T08:07:04.271Z,944.2
2017-07-29T08:08:12.362Z,944.2
2017-07-29T08:09:20.449Z,944.2
2017-07-29T08:10:28.554Z,944.2
2017-07-29T08:11:36.699Z,944.2
2017-07-29T08:12:44.708Z,944.1
2017-07-29T08:13:52.796Z,944.1
2017-07-29T08:15:00.888Z,944.1
2017-07-29T08:16:08.979Z,944.1
2017-07-29T08:17:17.186Z,944.1
2017-07-29T08:18:25.150Z,944.0
2017-07-29T08:19:33.236Z,944.0
2017-07-29T08:20:42.420Z,944.1
2017-07-29T08:21:49.416Z,944.1
2017-07-29T08:22:57.620Z,944.1
2017-07-29T08:24:05.586Z,944.1
2017-07-29T08:25:13.675Z,944.1
2017-07-29T08:26:21.755Z,944.2
2017-07-29T08:27:29.884Z,944.1
2017-07-29T08:28:37.994Z,944.1
2017-07-29T08:29:46.018Z,944.1
2017-07-29T08:30:54.106Z,944.1
2017-07-29T08:32:02.288Z,944.1
2017-07-29T08:33:10.487Z,944.1
2017-07-29T08:34:18.495Z,944.1
2017-07-29T08:35:26.459Z,944.1
2017-07-29T08:36:34.602Z,944.1
2017-07-29T08:37:42.632Z,944.1
2017-07-29T08:38:50.797Z,944.1
2017-07-29T08:39:58.928Z,944.1
2017-07-29T08:41:06.896Z,944.1
2017-07-29T08:42:14.983Z,944.1
2017-07-29T08:43:23.070Z,944.1
2017-07-29T08:44:31.178Z,944.1
2017-07-29T08:45:39.302Z,944.1
2017-07-29T08:46:47.333Z,944.1
2017-07-29T08:47:55.421Z,944.1
2017-07-29T08:49:03.507Z,944.1
2017-07-29T08:50:11.595Z,944.1
2017-07-29T08:51:19.804Z,944.1
2017-07-29T08:52:27.828Z,944.1
2017-07-29T08:53:35.861Z,944.1
2017-07-29T08:54:43.951Z,944.1
2017-07-29T08:55:52.142Z,944.1
2017-07-29T08:57:00.182Z,944.1
2017-07-29T08:58:08.211Z,944.2
2017-07-29T08:59:16.302Z,944.2
2017-07-29T09:00:24.385Z,944.1
2017-07-29T09:01:32.474Z,944.1
2017-07-29T09:02:40.689Z,944.1
2017-07-29T09:03:48.646Z,944.1
2017-07-29T09:04:56.734Z,944.1
2017-07-29T09:06:05.017Z,944.1
2017-07-29T09:07:13.108Z,944.1
2017-07-29T09:08:21.118Z,944.1
2017-07-29T09:09:29.086Z,944.1
2017-07-29T09:10:37.179Z,944.1
2017-07-29T09:11:45.264Z,944.2
2017-07-29T09:12:53.353Z,944.1
2017-07-29T09:14:01.494Z,944.2
2017-07-29T09:15:09.526Z,944.2
2017-07-29T09:16:17.614Z,944.2
2017-07-29T09:17:25.701Z,944.2
2017-07-29T09:18:33.827Z,944.1
2017-07-29T09:19:42.012Z,944.1
2017-07-29T09:20:49.965Z,944.1
2017-07-29T09:21:58.049Z,944.1
2017-07-29T09:23:06.136Z,944.1
2017-07-29T09:24:14.279Z,944.1
2017-07-29T09:25:22.431Z,944.1
2017-07-29T09:26:30.397Z,944.1
2017-07-29T09:27:38.484Z,944.1
2017-07-29T09:28:46.572Z,944.1
2017-07-29T09:29:54.813Z,944.1
2017-07-29T09:31:02.810Z,944.1
2017-07-29T09:32:10.838Z,944.1
2017-07-29T09:33:18.924Z,944.1
2017-07-29T09:34:27.014Z,944.1
2017-07-29T09:35:35.196Z,944.1
2017-07-29T09:36:43.311Z,944.1
2017-07-29T09:37:51.277Z,944.1
2017-07-29T09:38:59.365Z,944.1
2017-07-29T09:40:07.508Z,944.1
2017-07-29T09:41:15.539Z,944.0
2017-07-29T09:42:23.682Z,944.0
2017-07-29T09:43:31.712Z,944.0
2017-07-29T09:44:39.800Z,944.0
2017-07-29T09:45:47.887Z,943.9
2017-07-29T09:46:56.157Z,944.0
2017-07-29T09:48:04.119Z,944.0
2017-07-29T09:49:12.148Z,944.1
2017-07-29T09:50:20.234Z,944.1
2017-07-29T09:51:28.324Z,944.1
2017-07-29T09:52:36.545Z,944.1
2017-07-29T09:53:44.680Z,944.1
2017-07-29T09:54:52.586Z,944.1
2017-07-29T09:56:00.794Z,944.0
2017-07-29T09:57:08.762Z,944.0
2017-07-29T09:58:16.908Z,944.0
2017-07-29T09:59:25.104Z,944.0
2017-07-29T10:00:33.028Z,944.0
2017-07-29T10:01:41.117Z,944.0
2017-07-29T10:02:49.204Z,944.0
2017-07-29T10:03:57.412Z,944.0
2017-07-29T10:05:05.380Z,944.0
2017-07-29T10:06:13.510Z,944.0
2017-07-29T10:07:21.554Z,944.0
2017-07-29T10:08:29.642Z,944.0
2017-07-29T10:09:37.787Z,944.0
2017-07-29T10:10:45.819Z,944.0
2017-07-29T10:11:54.026Z,944.0
2017-07-29T10:13:01.995Z,943.9
2017-07-29T10:14:10.081Z,943.9
2017-07-29T10:15:18.227Z,943.9
2017-07-29T10:16:26.331Z,944.0
2017-07-29T10:17:34.352Z,944.0
2017-07-29T10:18:42.433Z,944.0
2017-07-29T10:19:50.521Z,943.9
2017-07-29T10:20:58.728Z,944.0
2017-07-29T10:22:06.803Z,943.9
2017-07-29T10:23:14.918Z,943.9
2017-07-29T10:24:22.876Z,943.9
2017-07-29T10:25:30.960Z,943.9
2017-07-29T10:26:39.168Z,944.0
2017-07-29T10:27:47.190Z,943.9
2017-07-29T10:28:55.223Z,943.9
2017-07-29T10:30:03.309Z,943.8
2017-07-29T10:31:11.398Z,943.8
2017-07-29T10:32:19.543Z,943.8
2017-07-29T10:33:27.575Z,943.8
2017-07-29T10:34:35.672Z,943.8
2017-07-29T10:35:43.750Z,943.7
2017-07-29T10:36:51.839Z,943.8
2017-07-29T10:38:00.044Z,943.7
2017-07-29T10:39:08.169Z,943.7
2017-07-29T10:40:16.276Z,943.7
2017-07-29T10:41:24.188Z,943.7
2017-07-29T10:42:32.281Z,943.8
2017-07-29T10:43:40.421Z,943.7
2017-07-29T10:44:48.464Z,943.8
2017-07-29T10:45:56.621Z,943.7
2017-07-29T10:47:04.632Z,943.8
2017-07-29T10:48:12.723Z,943.8
2017-07-29T10:49:20.928Z,943.8
2017-07-29T10:50:28.896Z,943.7
2017-07-29T10:51:36.998Z,943.7
2017-07-29T10:52:45.097Z,943.7
2017-07-29T10:53:53.161Z,943.7
2017-07-29T10:55:01.303Z,943.7
2017-07-29T10:56:09.338Z,943.7
2017-07-29T10:57:17.422Z,943.7
2017-07-29T10:58:25.514Z,943.7
2017-07-29T10:59:33.720Z,943.7
2017-07-29T11:00:41.747Z,943.7
2017-07-29T11:01:49.775Z,943.7
2017-07-29T11:02:57.997Z,943.7
2017-07-29T11:04:05.957Z,943.7
2017-07-29T11:05:14.041Z,943.6
2017-07-29T11:06:22.184Z,943.6
2017-07-29T11:07:30.216Z,943.6
2017-07-29T11:08:38.303Z,943.6
2017-07-29T11:09:46.391Z,943.6
2017-07-29T11:10:54.481Z,943.6
2017-07-29T11:12:02.690Z,943.6
2017-07-29T11:13:10.656Z,943.6
2017-07-29T11:14:18.745Z,943.5
2017-07-29T11:15:26.890Z,943.6
2017-07-29T11:16:34.926Z,943.5
2017-07-29T11:17:43.126Z,943.5
2017-07-29T11:18:51.098Z,943.6
2017-07-29T11:19:59.254Z,943.5
2017-07-29T11:21:07.276Z,943.6
2017-07-29T11:22:15.368Z,943.5
2017-07-29T11:23:23.513Z,943.5
2017-07-29T11:24:31.542Z,943.5
2017-07-29T11:25:39.685Z,943.5
2017-07-29T11:26:47.784Z,943.5
2017-07-29T11:27:55.815Z,943.5
2017-07-29T11:29:04.028Z,943.5
2017-07-29T11:30:11.982Z,943.5
2017-07-29T11:31:20.160Z,943.5
2017-07-29T11:32:28.166Z,943.5
2017-07-29T11:33:36.254Z,943.5
2017-07-29T11:34:44.462Z,943.5
2017-07-29T11:35:52.436Z,943.5
2017-07-29T11:37:00.665Z,943.5
2017-07-29T11:38:08.610Z,943.5
2017-07-29T11:39:16.698Z,943.5
2017-07-29T11:40:24.839Z,943.4
2017-07-29T11:41:32.872Z,943.4
2017-07-29T11:42:41.032Z,943.4
2017-07-29T11:43:49.126Z,943.4
2017-07-29T11:44:57.140Z,943.4
2017-07-29T11:46:05.350Z,943.4
2017-07-29T11:47:13.373Z,943.4
2017-07-29T11:48:21.404Z,943.3
2017-07-29T11:49:29.501Z,943.4
2017-07-29T11:50:37.579Z,943.4
2017-07-29T11:51:45.728Z,943.3
2017-07-29T11:52:53.760Z,943.3
2017-07-29T11:54:01.847Z,943.3
2017-07-29T11:55:09.934Z,943.3
2017-07-29T11:56:18.021Z,943.3
2017-07-29T11:57:26.229Z,943.3
2017-07-29T11:58:34.201Z,943.3
2017-07-29T11:59:42.290Z,943.3
2017-07-29T12:00:50.489Z,943.3
2017-07-29T12:01:58.462Z,943.3
2017-07-29T12:03:06.671Z,943.3
2017-07-29T12:04:14.637Z,943.2
2017-07-29T12:05:22.728Z,943.2
2017-07-29T12:06:30.840Z,943.2
2017-07-29T12:07:38.906Z,943.1
2017-07-29T12:08:47.051Z,943.1
2017-07-29T12:09:55.091Z,943.1
2017-07-29T12:11:03.172Z,943.1
2017-07-29T12:12:11.257Z,943.1
2017-07-29T12:13:19.347Z,943.1
2017-07-29T12:14:27.486Z,943.0
2017-07-29T12:15:35.522Z,943.0
2017-07-29T12:16:43.702Z,943.0
2017-07-29T12:20:07.931Z,943.0
2017-07-29T12:21:15.963Z,943.0
2017-07-29T12:28:04.552Z,943.0
2017-07-29T12:29:12.578Z,943.0
2017-07-29T12:30:20.669Z,943.0
2017-07-29T12:31:28.755Z,943.0
2017-07-29T12:32:36.841Z,942.9
2017-07-29T12:33:45.172Z,943.0
2017-07-29T12:34:53.042Z,943.0
2017-07-29T12:36:01.168Z,942.9
2017-07-29T12:37:09.200Z,943.0
2017-07-29T12:38:17.285Z,942.9
2017-07-29T12:39:25.498Z,942.9
2017-07-29T12:40:33.474Z,942.9
2017-07-29T12:41:41.549Z,942.9
2017-07-29T12:42:49.637Z,942.9
2017-07-29T12:43:57.726Z,942.9
2017-07-29T12:45:05.869Z,943.0
2017-07-29T12:46:13.909Z,943.0
2017-07-29T12:47:21.992Z,942.9
2017-07-29T12:48:30.081Z,943.0
2017-07-29T12:49:38.171Z,942.9
2017-07-29T12:50:46.319Z,942.9
2017-07-29T12:51:54.470Z,942.9
2017-07-29T12:53:02.439Z,943.0
2017-07-29T12:54:10.528Z,942.9
2017-07-29T12:55:18.616Z,942.9
2017-07-29T12:56:26.764Z,942.9
2017-07-29T12:57:34.794Z,943.0
2017-07-29T12:58:42.883Z,943.0
2017-07-29T12:59:50.971Z,943.0
2017-07-29T13:00:59.057Z,942.9
2017-07-29T13:02:07.380Z,943.0
2017-07-29T13:03:15.233Z,943.0
2017-07-29T13:04:23.323Z,942.9
2017-07-29T13:05:31.412Z,942.9
2017-07-29T13:06:39.499Z,942.9
2017-07-29T13:07:47.753Z,942.9
2017-07-29T13:08:55.724Z,943.0
2017-07-29T13:10:03.763Z,942.9
2017-07-29T13:11:11.851Z,943.0
2017-07-29T13:12:19.940Z,942.9
2017-07-29T13:13:28.150Z,943.0
2017-07-29T13:14:36.121Z,943.0
2017-07-29T13:15:44.206Z,943.0
2017-07-29T13:16:52.296Z,943.0
2017-07-29T13:18:00.386Z,943.0
2017-07-29T13:19:08.646Z,943.0
2017-07-29T13:20:16.561Z,943.0
2017-07-29T13:21:24.647Z,943.0
2017-07-29T13:22:32.739Z,942.9
2017-07-29T13:23:40.943Z,942.9
2017-07-29T13:24:49.046Z,942.9
2017-07-29T13:25:57.010Z,942.9
2017-07-29T13:27:05.101Z,942.9
2017-07-29T13:28:13.181Z,942.9
2017-07-29T13:29:21.268Z,942.9
2017-07-29T13:30:29.414Z,942.8
2017-07-29T13:31:37.448Z,942.8
2017-07-29T13:32:45.534Z,942.8
2017-07-29T13:33:53.623Z,942.8
2017-07-29T13:35:01.714Z,942.8
2017-07-29T13:36:10.125Z,942.7
2017-07-29T13:37:17.890Z,942.7
2017-07-29T13:38:25.978Z,942.7
2017-07-29T13:39:34.127Z,942.6
2017-07-29T13:40:42.155Z,942.7
2017-07-29T13:41:50.372Z,942.6
2017-07-29T13:42:58.471Z,942.6
2017-07-29T13:44:06.422Z,942.6
2017-07-29T13:45:14.508Z,942.6
2017-07-29T13:46:22.598Z,942.6
2017-07-29T13:47:30.808Z,942.6
2017-07-29T13:48:38.816Z,942.5
2017-07-29T13:49:46.862Z,942.5
2017-07-29T13:50:54.952Z,942.6
2017-07-29T13:52:03.038Z,942.6
2017-07-29T13:53:11.249Z,942.5
2017-07-29T13:54:19.218Z,942.6
2017-07-29T13:55:27.363Z,942.6
2017-07-29T13:56:35.394Z,942.5
2017-07-29T13:57:43.482Z,942.6
2017-07-29T13:58:51.777Z,942.5
2017-07-29T13:59:59.731Z,942.5
2017-07-29T14:01:07.749Z,942.5
2017-07-29T14:02:15.835Z,942.5
2017-07-29T14:03:23.923Z,942.5
2017-07-29T14:04:32.071Z,942.5
2017-07-29T14:05:40.188Z,942.5
2017-07-29T14:06:48.197Z,942.5
2017-07-29T14:07:56.281Z,942.5
2017-07-29T14:09:04.370Z,942.5
2017-07-29T14:10:12.520Z,942.5
2017-07-29T14:11:20.672Z,942.5
2017-07-29T14:12:28.641Z,942.5
2017-07-29T14:13:36.755Z,942.4
2017-07-29T14:14:44.818Z,942.4
2017-07-29T14:15:53.118Z,942.5
2017-07-29T14:17:01.047Z,942.5
2017-07-29T14:18:09.098Z,942.4
2017-07-29T14:19:17.174Z,942.4
2017-07-29T14:20:25.266Z,942.5
2017-07-29T14:21:33.469Z,942.4
2017-07-29T14:22:41.467Z,942.4
2017-07-29T14:23:49.528Z,942.4
2017-07-29T14:24:57.617Z,942.4
2017-07-29T14:26:05.706Z,942.5
2017-07-29T14:27:13.920Z,942.4
2017-07-29T14:28:21.881Z,942.4
2017-07-29T14:29:29.969Z,942.4
2017-07-29T14:30:38.056Z,942.4
2017-07-29T14:31:46.147Z,942.3
2017-07-29T14:32:54.307Z,942.3
2017-07-29T14:34:02.470Z,942.3
2017-07-29T14:35:10.415Z,942.3
2017-07-29T14:36:18.503Z,942.3
2017-07-29T14:37:26.592Z,942.2
2017-07-29T14:38:34.800Z,942.2
2017-07-29T14:39:42.819Z,942.2
2017-07-29T14:40:50.856Z,942.2
2017-07-29T14:41:58.944Z,942.2
2017-07-29T14:43:07.089Z,942.2
2017-07-29T14:44:15.244Z,942.2